Startpagina
METAR-TAF:

METAR-TAF

Vliegvelden :

Ermelo, Zuid-Afrika

breedte: 26-29-44S, lengte: 29-58-47E, hoogte: 1737 m

Actueel weer

Dit bericht is 10 uur en het 48 minuten geleden gemaakt, om 06:48 UTC
Wind 1 kt uit het noordnoordwesten
Temperatuur 12°C
Vochtigheid 30%
Druk 1027 hPa

METAR: FAEO 250648Z AUTO 33001KT //// // ////// 12/M05 Q1027

Tijdstip: 19:36 (17:36 UTC)


TAF: ontbreekt

Waarnemingen en weersverwachtingen van meer dan 4000 vliegvelden (METAR en TAF).

De beschikbare stations zijn de gele en rode punten op de kaart.

Ga met uw muis naar het station om de naam te zien.

Klik dan om waarnemingen en weersverwachtingen te zien.

kaart wijzigen: klik op de groene knoppen met een zwart kruis om in te zoomen, op de groene knop met een streepje om uit te zoomen of op de groene pijlen voor aangrenzende kaarten.


METAR-TAF: